Time;durP1;ratioP1;P1;durP2;ratioP2;P2;SDS_P1;SDS_P2;PMS_P1;PMS_P2;Temp;Humidity;BMP_temperature;BMP_pressure;BME280_temperature;BME280_humidity;BME280_pressure;Samples;Min_cycle;Max_cycle;Signal;HPM_P1;HPM_P2
2022/06/19 00:00:49;;;;;;;10.98;2.50;;;19.70;99.90;;;;;;4207063;28;20174;-91
2022/06/19 00:02:50;;;;;;;9.15;2.05;;;19.50;99.90;;;;;;4187832;28;20168;-90
2022/06/19 00:04:54;;;;;;;11.68;2.25;;;19.50;99.90;;;;;;4184451;28;20172;-89
2022/06/19 00:06:56;;;;;;;11.32;2.17;;;19.40;99.90;;;;;;4185545;28;20187;-93
2022/06/19 00:08:58;;;;;;;14.32;2.42;;;19.40;99.90;;;;;;4202776;28;20199;-96
2022/06/19 00:11:00;;;;;;;11.23;2.22;;;19.30;99.90;;;;;;4183753;28;20290;-92
2022/06/19 00:13:01;;;;;;;13.82;2.13;;;19.30;99.90;;;;;;4183335;28;20203;-94
2022/06/19 00:15:02;;;;;;;9.20;2.00;;;19.20;99.90;;;;;;4183828;28;20183;-95
2022/06/19 00:17:05;;;;;;;12.18;2.42;;;19.10;99.90;;;;;;4182496;28;20179;-92
2022/06/19 00:19:06;;;;;;;12.23;2.35;;;19.10;99.90;;;;;;4198849;28;20187;-96
2022/06/19 00:21:16;;;;;;;11.73;2.58;;;19.20;99.90;;;;;;4183172;28;20178;-91
2022/06/19 00:23:17;;;;;;;9.02;2.28;;;19.10;99.90;;;;;;4198861;28;20262;-90
2022/06/19 00:25:17;;;;;;;10.75;2.55;;;19.00;99.90;;;;;;4181980;28;20213;-93
2022/06/19 00:27:18;;;;;;;19.10;2.88;;;18.90;99.90;;;;;;4183340;28;20673;-91
2022/06/19 00:29:19;;;;;;;13.15;2.63;;;18.70;99.90;;;;;;4182627;28;20187;-94
2022/06/19 00:31:20;;;;;;;13.13;2.40;;;18.70;99.90;;;;;;4182477;28;20211;-94
2022/06/19 00:33:20;;;;;;;16.70;2.33;;;18.60;99.90;;;;;;4182895;28;20182;-95
2022/06/19 00:35:21;;;;;;;22.60;3.15;;;18.50;99.90;;;;;;4183754;28;20167;-91
2022/06/19 00:37:22;;;;;;;11.77;2.70;;;18.50;99.90;;;;;;4182947;28;20182;-94
2022/06/19 00:39:22;;;;;;;15.48;2.38;;;18.50;99.90;;;;;;4198983;28;20198;-92
2022/06/19 00:41:24;;;;;;;8.80;2.33;;;18.70;99.90;;;;;;4183388;28;20195;-90
2022/06/19 00:43:26;;;;;;;15.35;2.28;;;18.90;99.90;;;;;;4202524;28;20175;-93
2022/06/19 00:45:43;;;;;;;11.93;2.40;;;19.10;99.90;;;;;;4207712;28;20254;-90
2022/06/19 00:47:43;;;;;;;10.95;2.47;;;19.10;99.90;;;;;;4191112;28;20179;-94
2022/06/19 00:49:59;;;;;;;13.57;2.38;;;18.90;99.90;;;;;;4187948;28;20245;-93
2022/06/19 00:52:34;;;;;;;14.48;2.53;;;18.80;99.90;;;;;;4182932;28;20301;-95
2022/06/19 00:54:58;;;;;;;13.80;1.98;;;18.90;99.90;;;;;;4180760;28;20183;-96
2022/06/19 00:56:59;;;;;;;14.43;2.80;;;18.50;99.90;;;;;;4174390;28;20190;-92
2022/06/19 00:59:01;;;;;;;14.88;1.90;;;18.50;99.90;;;;;;4190612;28;20194;-89
2022/06/19 01:01:07;;;;;;;14.45;2.30;;;18.60;99.90;;;;;;4185885;28;20176;-94
2022/06/19 01:03:43;;;;;;;20.65;2.42;;;18.40;99.90;;;;;;4186874;28;20183;-89
2022/06/19 01:05:46;;;;;;;17.40;2.30;;;18.20;99.90;;;;;;4187934;28;20175;-95
2022/06/19 01:07:48;;;;;;;12.30;1.58;;;18.20;99.90;;;;;;4186379;28;20183;-93
2022/06/19 01:09:50;;;;;;;13.15;1.88;;;18.30;99.90;;;;;;4202462;28;20206;-93
2022/06/19 01:11:51;;;;;;;11.23;1.40;;;18.20;99.90;;;;;;4203336;28;20210;-96
2022/06/19 01:13:53;;;;;;;10.35;1.75;;;18.10;99.90;;;;;;4203002;28;20242;-96
2022/06/19 01:15:54;;;;;;;14.75;1.75;;;18.10;99.90;;;;;;4204422;28;20186;-90
2022/06/19 01:18:02;;;;;;;15.40;1.90;;;18.10;99.90;;;;;;4206512;28;20190;-94
2022/06/19 01:20:07;;;;;;;12.57;1.77;;;18.10;99.90;;;;;;4206188;28;20179;-93
2022/06/19 01:22:30;;;;;;;10.68;1.42;;;18.00;99.90;;;;;;4203926;28;20179;-90
2022/06/19 01:25:00;;;;;;;13.50;1.70;;;18.00;99.90;;;;;;4207346;28;20163;-93
2022/06/19 01:27:02;;;;;;;6.22;1.20;;;17.80;99.90;;;;;;4202184;28;20206;-95
2022/06/19 01:29:03;;;;;;;15.73;1.48;;;17.80;99.90;;;;;;4202452;28;20194;-96
2022/06/19 01:31:06;;;;;;;10.50;1.50;;;18.00;99.90;;;;;;4203916;28;20202;-90
2022/06/19 01:33:10;;;;;;;11.50;2.13;;;18.00;99.90;;;;;;4203451;28;20216;-94
2022/06/19 01:35:15;;;;;;;8.13;1.30;;;17.80;99.90;;;;;;4188196;28;20192;-91
2022/06/19 01:37:22;;;;;;;9.75;1.55;;;17.70;99.90;;;;;;4205968;28;20159;-95
2022/06/19 01:39:24;;;;;;;6.55;1.45;;;17.70;99.90;;;;;;4203502;28;20220;-94
2022/06/19 01:41:31;;;;;;;10.60;1.70;;;17.60;99.90;;;;;;4186882;28;20187;-92
2022/06/19 01:43:36;;;;;;;8.15;1.25;;;17.50;99.90;;;;;;4188952;28;20191;-91
2022/06/19 01:45:45;;;;;;;12.32;1.88;;;17.50;99.90;;;;;;4187712;28;20168;-94
2022/06/19 01:47:46;;;;;;;10.45;1.55;;;17.60;99.90;;;;;;4188735;28;20654;-91
2022/06/19 01:49:50;;;;;;;16.38;1.65;;;17.60;99.90;;;;;;4208150;28;20187;-94
2022/06/19 01:51:52;;;;;;;15.85;1.58;;;17.40;99.90;;;;;;4205820;28;20214;-94
2022/06/19 01:54:03;;;;;;;8.18;2.13;;;17.40;99.90;;;;;;4205155;28;20171;-90
2022/06/19 01:56:11;;;;;;;11.90;1.80;;;17.20;99.90;;;;;;4186177;28;20269;-94
2022/06/19 01:58:12;;;;;;;10.20;1.67;;;17.00;99.90;;;;;;4205081;28;20177;-94
2022/06/19 02:00:18;;;;;;;12.93;1.58;;;16.90;99.90;;;;;;4189132;28;20176;-94
2022/06/19 02:02:20;;;;;;;10.95;1.73;;;16.80;99.90;;;;;;4205550;28;20186;-92
2022/06/19 02:04:23;;;;;;;8.15;1.33;;;16.80;99.90;;;;;;4189327;28;20171;-89
2022/06/19 02:06:28;;;;;;;14.85;1.80;;;16.90;99.90;;;;;;4188639;28;20527;-93
2022/06/19 02:08:30;;;;;;;7.80;1.17;;;16.90;99.90;;;;;;4187057;28;20226;-90
2022/06/19 02:10:33;;;;;;;6.50;1.00;;;16.90;99.90;;;;;;4203659;28;20528;-94
2022/06/19 02:12:34;;;;;;;11.32;1.55;;;16.90;99.90;;;;;;4202023;28;20216;-92
2022/06/19 02:14:35;;;;;;;7.55;1.80;;;17.00;99.90;;;;;;4187387;28;20266;-90
2022/06/19 02:16:40;;;;;;;11.30;1.38;;;17.00;99.90;;;;;;4202824;28;20634;-90
2022/06/19 02:18:44;;;;;;;15.95;1.98;;;16.90;99.90;;;;;;4187187;28;20190;-92
2022/06/19 02:20:45;;;;;;;10.50;1.40;;;16.80;99.90;;;;;;4187538;28;20226;-93
2022/06/19 02:22:47;;;;;;;7.30;1.30;;;16.80;99.90;;;;;;4188155;28;20175;-90
2022/06/19 02:24:47;;;;;;;10.20;1.38;;;16.70;99.90;;;;;;4186973;28;20179;-91
2022/06/19 02:26:49;;;;;;;8.45;1.35;;;16.60;99.90;;;;;;4185066;28;20286;-91
2022/06/19 02:28:51;;;;;;;12.38;1.20;;;16.60;99.90;;;;;;4185352;28;20191;-90
2022/06/19 02:30:51;;;;;;;7.90;1.48;;;16.60;99.90;;;;;;4184868;28;20280;-90
2022/06/19 02:32:52;;;;;;;10.95;1.25;;;16.60;99.90;;;;;;4202804;28;20182;-90
2022/06/19 02:34:53;;;;;;;14.07;1.55;;;16.60;99.90;;;;;;4187657;28;20256;-93
2022/06/19 02:37:02;;;;;;;6.22;1.17;;;16.60;99.90;;;;;;4205062;28;20175;-90
2022/06/19 02:39:34;;;;;;;6.53;1.60;;;16.50;99.90;;;;;;4202510;28;20194;-90
2022/06/19 02:41:44;;;;;;;7.70;1.38;;;16.50;99.90;;;;;;4181024;28;20190;-90
2022/06/19 02:43:45;;;;;;;6.88;0.85;;;16.40;99.90;;;;;;4202305;28;20225;-95
2022/06/19 02:45:46;;;;;;;7.85;1.33;;;16.40;99.90;;;;;;4186477;28;20171;-91
2022/06/19 02:47:48;;;;;;;9.65;1.58;;;16.40;99.90;;;;;;4186370;28;20254;-91
2022/06/19 02:49:48;;;;;;;13.27;1.65;;;16.30;99.90;;;;;;4186732;28;20192;-91
2022/06/19 02:51:49;;;;;;;10.15;1.27;;;16.20;99.90;;;;;;4202285;28;20288;-92
2022/06/19 02:53:50;;;;;;;10.13;1.00;;;16.20;99.90;;;;;;4203083;28;20206;-93
2022/06/19 02:55:51;;;;;;;8.32;1.23;;;16.20;99.90;;;;;;4187190;28;20179;-91
2022/06/19 02:57:52;;;;;;;10.80;1.23;;;16.20;99.90;;;;;;4186659;28;20195;-95
2022/06/19 02:59:54;;;;;;;9.75;1.65;;;16.30;99.90;;;;;;4186705;28;20587;-93
2022/06/19 03:01:55;;;;;;;7.50;1.10;;;16.30;99.90;;;;;;4205083;28;20174;-95
2022/06/19 03:03:56;;;;;;;12.50;1.40;;;16.40;99.90;;;;;;4188990;28;20175;-95
2022/06/19 03:05:57;;;;;;;4.63;1.20;;;16.40;99.90;;;;;;4189966;28;20203;-96
2022/06/19 03:07:58;;;;;;;6.80;1.30;;;16.60;99.90;;;;;;4200831;28;20182;-92
2022/06/19 03:09:59;;;;;;;8.88;1.23;;;16.80;99.90;;;;;;4183159;28;20191;-93
2022/06/19 03:12:01;;;;;;;14.27;1.20;;;16.90;99.90;;;;;;4183580;28;20289;-94
2022/06/19 03:14:02;;;;;;;9.00;1.20;;;16.90;99.90;;;;;;4185395;28;20670;-89
2022/06/19 03:16:06;;;;;;;15.02;1.38;;;16.80;99.90;;;;;;4184629;28;20175;-93
2022/06/19 03:18:07;;;;;;;7.63;1.15;;;16.60;99.90;;;;;;4183654;28;20167;-94
2022/06/19 03:20:12;;;;;;;6.03;1.05;;;16.50;99.90;;;;;;4183204;28;20175;-93
2022/06/19 03:22:13;;;;;;;9.95;1.63;;;16.40;99.90;;;;;;4200784;28;20171;-94
2022/06/19 03:24:14;;;;;;;14.20;1.05;;;16.30;99.90;;;;;;4183396;28;20181;-92
2022/06/19 03:26:15;;;;;;;8.75;1.70;;;16.20;99.90;;;;;;4183785;28;20660;-90
2022/06/19 03:28:16;;;;;;;11.68;1.25;;;16.10;99.90;;;;;;4183925;28;20208;-92
2022/06/19 03:30:19;;;;;;;8.55;1.00;;;16.10;99.90;;;;;;4182629;28;20606;-95
2022/06/19 03:32:20;;;;;;;8.85;1.00;;;16.20;99.90;;;;;;4182775;28;20219;-90
2022/06/19 03:34:21;;;;;;;10.65;1.45;;;16.20;99.90;;;;;;4199246;28;20163;-92
2022/06/19 03:36:22;;;;;;;6.00;1.17;;;16.20;99.90;;;;;;4182606;28;20241;-92
2022/06/19 03:38:23;;;;;;;14.35;1.50;;;16.20;99.90;;;;;;4182436;28;20199;-90
2022/06/19 03:40:23;;;;;;;5.95;1.00;;;16.00;99.90;;;;;;4199367;28;20163;-92
2022/06/19 03:42:24;;;;;;;9.02;1.02;;;16.20;99.90;;;;;;4199466;28;20527;-89
2022/06/19 03:44:25;;;;;;;8.52;0.93;;;16.20;99.90;;;;;;4198778;28;20171;-91
2022/06/19 03:46:25;;;;;;;11.45;0.93;;;16.10;99.90;;;;;;4182982;28;20178;-91
2022/06/19 03:48:26;;;;;;;1.95;0.60;;;16.10;99.90;;;;;;4182672;28;20202;-90
2022/06/19 03:50:27;;;;;;;10.55;0.95;;;16.10;99.90;;;;;;4182210;28;20183;-90
2022/06/19 03:52:28;;;;;;;12.65;1.00;;;16.00;99.90;;;;;;4182119;28;20238;-91
2022/06/19 03:54:29;;;;;;;6.63;0.68;;;16.00;99.90;;;;;;4182663;28;20172;-90
2022/06/19 03:56:32;;;;;;;4.53;0.73;;;16.10;99.90;;;;;;4198953;28;20258;-92
2022/06/19 03:58:46;;;;;;;7.45;0.88;;;16.10;99.90;;;;;;4182303;28;20616;-93
2022/06/19 04:00:47;;;;;;;6.15;0.80;;;16.20;99.90;;;;;;4182298;28;20179;-92
2022/06/19 04:02:48;;;;;;;5.28;0.73;;;16.40;99.90;;;;;;4182318;28;20321;-91
2022/06/19 04:04:48;;;;;;;3.47;0.90;;;16.40;99.90;;;;;;4182284;28;20183;-90
2022/06/19 04:06:49;;;;;;;9.82;1.25;;;16.50;99.90;;;;;;4182005;28;20175;-89
2022/06/19 04:08:51;;;;;;;6.63;0.93;;;16.40;99.90;;;;;;4181779;28;20199;-89
2022/06/19 04:10:51;;;;;;;14.32;1.42;;;16.40;99.90;;;;;;4182105;28;20230;-90
2022/06/19 04:12:52;;;;;;;6.25;1.10;;;16.40;99.90;;;;;;4198547;28;20731;-92
2022/06/19 04:14:53;;;;;;;5.32;0.88;;;16.50;99.90;;;;;;4198759;28;20186;-93
2022/06/19 04:16:55;;;;;;;9.40;0.82;;;16.40;99.90;;;;;;4165685;28;20204;-91
2022/06/19 04:18:58;;;;;;;4.60;0.47;;;16.50;99.90;;;;;;4198360;28;20190;-90
2022/06/19 04:21:00;;;;;;;3.42;0.68;;;16.50;99.90;;;;;;4198437;28;20183;-92
2022/06/19 04:23:00;;;;;;;5.45;0.93;;;16.60;99.90;;;;;;4198285;28;20190;-90
2022/06/19 04:25:03;;;;;;;4.22;0.80;;;16.60;99.90;;;;;;4181745;28;20180;-94
2022/06/19 04:27:05;;;;;;;7.10;0.90;;;16.60;99.90;;;;;;4198290;28;20186;-90
2022/06/19 04:29:07;;;;;;;10.68;1.15;;;16.60;99.90;;;;;;4213560;22;20218;-89
2022/06/19 04:31:08;;;;;;;6.70;1.17;;;16.70;99.90;;;;;;4197756;28;20246;-88
2022/06/19 04:33:09;;;;;;;10.80;0.82;;;16.60;99.90;;;;;;4181596;28;20516;-89
2022/06/19 04:35:10;;;;;;;4.40;0.70;;;16.40;99.90;;;;;;4181451;28;20168;-88
2022/06/19 04:37:10;;;;;;;4.45;0.75;;;16.10;99.90;;;;;;4181453;28;20187;-89
2022/06/19 04:39:13;;;;;;;11.93;1.10;;;16.00;99.90;;;;;;4188109;28;20727;-93
2022/06/19 04:41:16;;;;;;;3.72;0.70;;;15.80;99.90;;;;;;4164446;28;20226;-89
2022/06/19 04:43:17;;;;;;;14.00;1.00;;;15.70;99.90;;;;;;4181408;28;20164;-88
2022/06/19 04:45:17;;;;;;;7.50;0.88;;;15.60;99.90;;;;;;4164973;28;20222;-89
2022/06/19 04:47:18;;;;;;;5.32;1.00;;;15.50;99.90;;;;;;4164985;28;20172;-88
2022/06/19 04:49:19;;;;;;;5.57;1.00;;;15.50;99.90;;;;;;4164675;28;20192;-89
2022/06/19 04:51:20;;;;;;;4.75;0.60;;;15.60;99.90;;;;;;4180963;28;20280;-89
2022/06/19 04:53:21;;;;;;;6.93;0.80;;;15.70;99.90;;;;;;4181466;28;20191;-89
2022/06/19 04:55:22;;;;;;;5.35;1.17;;;15.70;99.90;;;;;;4164922;28;20180;-89
2022/06/19 04:57:23;;;;;;;4.65;0.75;;;15.60;99.90;;;;;;4165003;28;20179;-89
2022/06/19 04:59:23;;;;;;;8.77;1.73;;;15.50;99.90;;;;;;4181448;28;20238;-89
2022/06/19 05:01:27;;;;;;;8.57;0.70;;;15.50;99.90;;;;;;4164529;28;20230;-95
2022/06/19 05:03:28;;;;;;;4.65;0.98;;;15.50;99.90;;;;;;4164716;28;20727;-89
2022/06/19 05:05:29;;;;;;;9.02;0.65;;;15.40;99.90;;;;;;4164671;28;20326;-89
2022/06/19 05:07:30;;;;;;;8.75;0.85;;;15.40;99.90;;;;;;4164634;28;20572;-90
2022/06/19 05:09:30;;;;;;;7.95;1.08;;;15.40;99.90;;;;;;4164499;28;20223;-89
2022/06/19 05:11:32;;;;;;;4.95;0.75;;;15.40;99.90;;;;;;4164676;28;20204;-92
2022/06/19 05:13:33;;;;;;;8.00;0.90;;;15.30;99.90;;;;;;4164674;28;20263;-90
2022/06/19 05:15:33;;;;;;;13.30;0.80;;;15.50;99.90;;;;;;4164325;28;20176;-90
2022/06/19 05:17:34;;;;;;;7.57;0.88;;;15.70;99.90;;;;;;4164360;28;20649;-89
2022/06/19 05:19:35;;;;;;;9.45;0.75;;;15.70;99.90;;;;;;4180800;28;20188;-91
2022/06/19 05:21:36;;;;;;;7.75;0.65;;;15.70;99.90;;;;;;4180548;28;20277;-90
2022/06/19 05:23:40;;;;;;;11.50;0.80;;;15.80;99.90;;;;;;4164792;28;20188;-91
2022/06/19 05:25:41;;;;;;;6.00;0.77;;;15.90;99.90;;;;;;4164284;28;20168;-90
2022/06/19 05:27:41;;;;;;;11.18;0.98;;;16.20;99.90;;;;;;4180951;28;20273;-89
2022/06/19 05:29:42;;;;;;;7.32;0.95;;;16.50;99.90;;;;;;4164088;28;20200;-90
2022/06/19 05:31:43;;;;;;;5.75;0.88;;;16.70;99.90;;;;;;4164177;28;20243;-90
2022/06/19 05:33:44;;;;;;;7.53;0.77;;;16.80;99.90;;;;;;4164388;28;20690;-89
2022/06/19 05:35:45;;;;;;;3.42;0.63;;;16.90;99.90;;;;;;4181037;28;20176;-89
2022/06/19 05:37:46;;;;;;;7.65;1.00;;;17.10;99.90;;;;;;4164090;28;20576;-89
2022/06/19 05:39:46;;;;;;;6.82;0.90;;;16.90;99.90;;;;;;4164142;28;20761;-88
2022/06/19 05:41:47;;;;;;;7.20;1.02;;;16.80;99.90;;;;;;4180629;28;20199;-88
2022/06/19 05:43:49;;;;;;;4.07;0.60;;;16.80;99.90;;;;;;4164300;28;20203;-88
2022/06/19 05:45:51;;;;;;;3.55;0.98;;;16.90;99.90;;;;;;4180885;28;20172;-88
2022/06/19 05:47:52;;;;;;;4.03;0.63;;;16.90;99.90;;;;;;4180979;28;20179;-87
2022/06/19 05:49:53;;;;;;;10.65;0.93;;;17.00;99.90;;;;;;4180690;28;20271;-88
2022/06/19 05:51:53;;;;;;;4.07;0.77;;;17.00;99.90;;;;;;4164104;28;20242;-88
2022/06/19 05:53:57;;;;;;;4.63;1.00;;;16.80;99.90;;;;;;4164315;28;20180;-88
2022/06/19 05:55:57;;;;;;;5.53;0.60;;;16.80;99.90;;;;;;4164269;28;20169;-89
2022/06/19 05:57:58;;;;;;;5.10;1.00;;;16.60;99.90;;;;;;4180491;28;20174;-88
2022/06/19 06:00:00;;;;;;;3.70;0.70;;;16.40;99.90;;;;;;4164027;28;20207;-88
2022/06/19 06:02:01;;;;;;;15.27;1.05;;;16.30;99.90;;;;;;4164232;28;20664;-89
2022/06/19 06:04:01;;;;;;;7.93;1.08;;;16.20;99.90;;;;;;4163971;28;20179;-88
2022/06/19 06:06:06;;;;;;;4.53;1.00;;;16.50;99.90;;;;;;4180827;28;20190;-88
2022/06/19 06:08:06;;;;;;;13.90;1.25;;;16.80;99.90;;;;;;4164122;28;20195;-90
2022/06/19 06:10:09;;;;;;;10.70;0.75;;;16.60;99.90;;;;;;4163819;28;20172;-94
2022/06/19 06:12:10;;;;;;;5.75;0.82;;;16.60;99.90;;;;;;4163678;28;20658;-89
2022/06/19 06:14:11;;;;;;;3.88;1.08;;;16.40;99.90;;;;;;4166029;28;20155;-93
2022/06/19 06:16:14;;;;;;;10.55;0.95;;;16.50;99.90;;;;;;4179714;28;20205;-90
2022/06/19 06:18:15;;;;;;;6.00;0.90;;;16.10;99.90;;;;;;4176531;28;20179;-91
2022/06/19 06:20:16;;;;;;;9.13;1.10;;;15.60;99.90;;;;;;4163597;28;20176;-91
2022/06/19 06:22:17;;;;;;;5.55;1.05;;;15.10;99.90;;;;;;4163585;28;20181;-91
2022/06/19 06:24:17;;;;;;;9.75;0.90;;;15.10;99.90;;;;;;4161782;28;20177;-93
2022/06/19 06:26:24;;;;;;;9.68;1.30;;;14.80;99.90;;;;;;4162194;28;20579;-90
2022/06/19 06:28:26;;;;;;;8.00;1.00;;;14.40;99.90;;;;;;4163733;28;20220;-89
2022/06/19 06:30:26;;;;;;;13.77;1.30;;;14.00;99.90;;;;;;4163702;28;20184;-95
2022/06/19 06:32:27;;;;;;;10.03;0.80;;;13.60;99.90;;;;;;4149484;28;20215;-87
2022/06/19 06:34:28;;;;;;;11.10;1.33;;;13.20;99.90;;;;;;4158201;28;20172;-88
2022/06/19 06:36:29;;;;;;;7.83;1.27;;;13.00;99.90;;;;;;4166260;28;20187;-86
2022/06/19 06:38:31;;;;;;;8.53;1.33;;;12.90;99.90;;;;;;4166381;28;20192;-90
2022/06/19 06:40:32;;;;;;;5.33;1.50;;;13.10;99.90;;;;;;4166948;28;20250;-86
2022/06/19 06:42:33;;;;;;;7.20;1.23;;;13.20;99.90;;;;;;4166825;28;20168;-87
2022/06/19 06:44:34;;;;;;;7.93;1.20;;;13.40;99.90;;;;;;4166615;28;20634;-87
2022/06/19 06:46:35;;;;;;;6.35;1.23;;;13.50;99.90;;;;;;4182848;28;20184;-87
2022/06/19 06:48:37;;;;;;;7.72;1.40;;;13.80;99.90;;;;;;4166072;28;20207;-87
2022/06/19 06:50:40;;;;;;;6.07;1.08;;;14.00;99.90;;;;;;4165987;28;20262;-87
2022/06/19 06:52:40;;;;;;;5.63;1.10;;;14.20;99.90;;;;;;4165773;28;20215;-89
2022/06/19 06:54:41;;;;;;;9.57;1.17;;;14.40;99.90;;;;;;4165717;28;20180;-90
2022/06/19 06:56:42;;;;;;;11.07;1.40;;;14.50;99.90;;;;;;4165480;28;20172;-87
2022/06/19 06:58:42;;;;;;;6.00;1.42;;;14.60;99.90;;;;;;4165732;28;20196;-87
2022/06/19 07:00:43;;;;;;;10.80;1.30;;;14.60;99.90;;;;;;4165443;28;20172;-87
2022/06/19 07:02:44;;;;;;;6.85;1.50;;;14.60;99.90;;;;;;4165611;28;20733;-87
2022/06/19 07:04:45;;;;;;;12.18;1.50;;;14.60;99.90;;;;;;4165958;28;20510;-86
2022/06/19 07:06:45;;;;;;;8.07;1.42;;;14.70;99.90;;;;;;4165662;28;20243;-87
2022/06/19 07:08:46;;;;;;;10.60;1.65;;;14.30;99.90;;;;;;4165408;28;20290;-87
2022/06/19 07:10:47;;;;;;;12.70;1.50;;;14.20;99.90;;;;;;4165468;28;20164;-87
2022/06/19 07:12:48;;;;;;;13.10;1.35;;;14.30;99.90;;;;;;4165344;28;20211;-87
2022/06/19 07:14:49;;;;;;;8.73;1.00;;;14.30;99.90;;;;;;4181505;28;20704;-88
2022/06/19 07:16:50;;;;;;;11.23;1.55;;;14.50;99.90;;;;;;4181491;28;20180;-86
2022/06/19 07:18:52;;;;;;;9.02;1.52;;;14.80;99.90;;;;;;4164946;28;20567;-87
2022/06/19 07:20:52;;;;;;;9.02;1.65;;;15.00;99.90;;;;;;4165195;28;20667;-88
2022/06/19 07:22:53;;;;;;;10.05;1.60;;;15.60;99.90;;;;;;4164915;28;20211;-87
2022/06/19 07:24:54;;;;;;;14.55;1.50;;;15.70;99.90;;;;;;4164606;28;20639;-86
2022/06/19 07:26:54;;;;;;;10.27;1.47;;;15.50;99.90;;;;;;4181182;28;20203;-86
2022/06/19 07:28:55;;;;;;;7.57;1.43;;;15.30;99.90;;;;;;4181129;28;20211;-89
2022/06/19 07:30:56;;;;;;;9.27;1.48;;;15.10;99.90;;;;;;4165097;28;20180;-91
2022/06/19 07:32:57;;;;;;;14.55;1.63;;;15.00;99.90;;;;;;4165156;28;20602;-86
2022/06/19 07:34:58;;;;;;;11.33;1.73;;;15.00;99.90;;;;;;4165281;28;20172;-86
2022/06/19 07:36:58;;;;;;;11.93;1.87;;;15.00;99.90;;;;;;4165263;28;20247;-86
2022/06/19 07:38:59;;;;;;;10.63;1.30;;;15.00;99.90;;;;;;4181598;28;20187;-87
2022/06/19 07:41:00;;;;;;;13.37;1.93;;;15.00;99.90;;;;;;4165413;28;20281;-86
2022/06/19 07:43:01;;;;;;;15.30;1.70;;;14.90;99.90;;;;;;4164787;28;20176;-87
2022/06/19 07:45:02;;;;;;;13.07;1.73;;;14.80;99.90;;;;;;4165316;28;20180;-87
2022/06/19 07:51:43;;;;;;;16.47;2.20;;;14.80;99.90;;;;;;4181690;28;20290;-87
2022/06/19 07:53:44;;;;;;;16.03;2.03;;;14.80;99.90;;;;;;4181564;28;20179;-87
2022/06/19 07:55:45;;;;;;;9.40;1.73;;;14.70;99.90;;;;;;4164967;28;20396;-87
2022/06/19 07:57:46;;;;;;;14.55;2.15;;;14.80;99.90;;;;;;4165097;28;20180;-86
2022/06/19 07:59:47;;;;;;;10.18;1.48;;;14.80;99.90;;;;;;4164919;28;20678;-87
2022/06/19 08:01:47;;;;;;;10.53;1.70;;;14.90;99.90;;;;;;4164543;28;20176;-89
2022/06/19 08:03:48;;;;;;;8.88;1.58;;;15.00;99.90;;;;;;4164928;28;20172;-86
2022/06/19 08:05:48;;;;;;;11.73;1.95;;;15.20;99.90;;;;;;4164705;28;20175;-87
2022/06/19 08:07:50;;;;;;;12.50;1.95;;;15.60;99.90;;;;;;4164615;28;20176;-88
2022/06/19 08:09:51;;;;;;;16.65;2.42;;;16.10;99.90;;;;;;4164300;28;20186;-88
2022/06/19 08:11:52;;;;;;;8.52;1.90;;;16.30;99.90;;;;;;4180905;28;20219;-91
2022/06/19 08:13:52;;;;;;;11.32;1.70;;;16.40;99.90;;;;;;4164637;28;20172;-87
2022/06/19 08:15:56;;;;;;;15.98;2.10;;;16.60;99.90;;;;;;4181287;28;20183;-88
2022/06/19 08:17:57;;;;;;;16.20;2.92;;;16.90;99.90;;;;;;4164650;28;20692;-90
2022/06/19 08:19:58;;;;;;;11.82;2.25;;;16.80;99.90;;;;;;4164136;28;20196;-86
2022/06/19 08:21:59;;;;;;;13.32;2.22;;;17.00;99.90;;;;;;4164259;28;20165;-87
2022/06/19 08:24:00;;;;;;;10.10;2.30;;;16.90;99.90;;;;;;4164130;28;20187;-89
2022/06/19 08:26:01;;;;;;;12.40;2.38;;;16.80;99.90;;;;;;4164229;28;20617;-87
2022/06/19 08:28:02;;;;;;;11.50;2.45;;;16.60;99.90;;;;;;4164209;28;20179;-87
2022/06/19 08:30:06;;;;;;;15.25;2.80;;;16.30;99.90;;;;;;4163938;28;20184;-87
2022/06/19 08:32:06;;;;;;;19.63;2.45;;;15.90;99.90;;;;;;4180696;28;20218;-86
2022/06/19 08:34:07;;;;;;;14.13;2.50;;;15.80;99.90;;;;;;4180656;28;20616;-87
2022/06/19 08:36:11;;;;;;;11.00;1.77;;;15.70;99.90;;;;;;4163852;28;20180;-88
2022/06/19 08:38:20;;;;;;;8.57;2.30;;;15.50;99.90;;;;;;4163897;28;20263;-87
2022/06/19 08:40:23;;;;;;;13.75;2.30;;;15.50;99.90;;;;;;4163885;28;20171;-87
2022/06/19 08:42:45;;;;;;;11.35;2.20;;;15.70;99.90;;;;;;4163847;28;20176;-87
2022/06/19 08:45:03;;;;;;;9.55;2.10;;;15.80;99.90;;;;;;4180234;28;20258;-87
2022/06/19 08:47:12;;;;;;;11.35;2.67;;;15.90;99.90;;;;;;4158132;28;20283;-88
2022/06/19 08:49:40;;;;;;;11.07;2.60;;;16.00;99.90;;;;;;4158426;28;20212;-87
2022/06/19 08:52:23;;;;;;;15.13;2.60;;;16.00;99.90;;;;;;4172634;28;20675;-87
2022/06/19 08:54:45;;;;;;;12.70;2.53;;;15.90;99.90;;;;;;4139745;28;20177;-87
2022/06/19 08:57:04;;;;;;;17.42;2.88;;;15.90;99.90;;;;;;4160027;28;20180;-87
2022/06/19 08:59:07;;;;;;;11.05;2.40;;;16.00;99.90;;;;;;4171335;28;20180;-87
2022/06/19 09:01:18;;;;;;;18.15;2.75;;;16.10;99.90;;;;;;4163437;28;20714;-87
2022/06/19 09:05:36;;;;;;;15.55;2.78;;;16.20;99.90;;;;;;4152942;28;20675;-87
2022/06/19 09:06:06;;;;;;;17.92;3.58;;;16.30;99.90;;;;;;4166154;28;20179;-87
2022/06/19 09:08:44;;;;;;;11.23;3.00;;;16.40;99.90;;;;;;4180456;28;20632;-87
2022/06/19 09:10:51;;;;;;;19.30;3.25;;;16.40;99.90;;;;;;4180079;28;20199;-91
2022/06/19 09:13:33;;;;;;;16.20;3.55;;;16.60;99.90;;;;;;4163834;28;20219;-88
2022/06/19 09:15:42;;;;;;;15.23;3.15;;;16.90;99.90;;;;;;4163661;28;20195;-88
2022/06/19 09:18:02;;;;;;;14.02;2.83;;;17.00;99.90;;;;;;4147426;28;20278;-87
2022/06/19 09:20:08;;;;;;;10.80;2.90;;;17.00;99.90;;;;;;4146646;28;20678;-87
2022/06/19 09:22:36;;;;;;;6.50;2.28;;;16.80;99.90;;;;;;4147266;28;20165;-89
2022/06/19 09:24:42;;;;;;;10.70;2.30;;;16.60;99.90;;;;;;4147166;28;20757;-88
2022/06/19 09:27:01;;;;;;;8.15;2.13;;;16.40;99.90;;;;;;4163320;28;20319;-89
2022/06/19 09:29:12;;;;;;;13.77;2.10;;;16.10;99.90;;;;;;4163548;28;20207;-87
2022/06/19 09:31:19;;;;;;;11.75;2.45;;;15.90;99.90;;;;;;4146949;28;20196;-91
2022/06/19 09:33:34;;;;;;;13.50;2.78;;;15.90;99.90;;;;;;4146676;28;20282;-87
2022/06/19 09:35:47;;;;;;;9.75;2.35;;;15.90;99.90;;;;;;4163006;28;20179;-90
2022/06/19 09:38:31;;;;;;;10.45;2.40;;;16.00;99.90;;;;;;4146832;28;20259;-88
2022/06/19 09:40:38;;;;;;;10.95;2.10;;;16.10;99.90;;;;;;4082138;29;20215;-88
2022/06/19 09:42:47;;;;;;;9.68;2.15;;;16.20;99.90;;;;;;4141003;28;20184;-87
2022/06/19 09:45:00;;;;;;;10.65;2.08;;;16.20;99.90;;;;;;4162630;28;20172;-90
2022/06/19 09:47:09;;;;;;;13.68;2.50;;;16.30;99.90;;;;;;4163082;28;20271;-89
2022/06/19 09:49:27;;;;;;;10.68;2.10;;;16.40;99.90;;;;;;4179627;28;20202;-90
2022/06/19 09:51:48;;;;;;;12.55;2.10;;;16.50;99.90;;;;;;4179068;28;20213;-91
2022/06/19 09:54:09;;;;;;;10.57;2.25;;;16.90;99.90;;;;;;4179549;28;20176;-90
2022/06/19 09:56:26;;;;;;;14.02;2.20;;;17.20;99.90;;;;;;4179409;28;20175;-88
2022/06/19 09:58:40;;;;;;;11.68;2.30;;;17.30;99.90;;;;;;4179719;28;20374;-88
2022/06/19 10:00:44;;;;;;;7.80;2.50;;;17.50;99.90;;;;;;4162545;28;20305;-87
2022/06/19 10:03:18;;;;;;;9.38;2.90;;;17.40;99.90;;;;;;4162856;28;20821;-89
2022/06/19 10:05:28;;;;;;;11.60;3.17;;;17.30;99.90;;;;;;4155199;28;20184;-87
2022/06/19 10:07:44;;;;;;;11.00;2.67;;;17.60;99.90;;;;;;4164762;28;20172;-88
2022/06/19 10:10:01;;;;;;;11.93;3.50;;;17.60;99.90;;;;;;4165790;28;20560;-88
2022/06/19 10:12:04;;;;;;;14.88;3.25;;;17.70;99.90;;;;;;4166009;28;20231;-87
2022/06/19 10:14:23;;;;;;;10.10;3.28;;;17.90;99.90;;;;;;4149086;28;20271;-90
2022/06/19 10:16:59;;;;;;;12.20;3.20;;;18.10;99.90;;;;;;4182070;28;20186;-87
2022/06/19 10:19:10;;;;;;;9.55;3.25;;;18.10;99.90;;;;;;4182302;28;20353;-91
2022/06/19 10:24:04;;;;;;;9.38;2.65;;;18.60;99.90;;;;;;4165782;28;20179;-87
2022/06/19 10:26:15;;;;;;;13.38;2.78;;;18.70;99.90;;;;;;4165216;28;20176;-86
2022/06/19 10:31:14;;;;;;;9.63;1.60;;;18.40;99.90;;;;;;4180502;28;20580;-87
2022/06/19 10:33:48;;;;;;;11.07;2.10;;;18.20;99.90;;;;;;4116102;28;20593;-88
2022/06/19 10:36:26;;;;;;;7.72;1.90;;;18.20;99.90;;;;;;4172965;28;20317;-87
2022/06/19 10:38:52;;;;;;;10.20;1.95;;;18.40;99.90;;;;;;4182788;28;20283;-89
2022/06/19 10:43:58;;;;;;;6.78;1.83;;;18.70;99.90;;;;;;4199011;28;20171;-87
2022/06/19 10:46:07;;;;;;;9.27;1.90;;;18.70;99.90;;;;;;4182045;28;20171;-88
2022/06/19 10:48:45;;;;;;;11.95;2.17;;;18.80;99.90;;;;;;4182040;28;20186;-90
2022/06/19 10:51:15;;;;;;;8.77;1.60;;;18.80;99.90;;;;;;4182118;28;20168;-89
2022/06/19 10:53:41;;;;;;;8.48;1.85;;;19.10;99.90;;;;;;4198702;28;20201;-90
2022/06/19 10:56:06;;;;;;;11.45;1.98;;;19.50;99.90;;;;;;4182179;28;20191;-89
2022/06/19 10:58:19;;;;;;;9.52;1.70;;;20.10;99.90;;;;;;4182056;28;20212;-89
2022/06/19 11:00:20;;;;;;;11.75;1.67;;;20.10;99.90;;;;;;4181788;28;20253;-90